PWSweather.com
Personal Weather Stations
Station Observations
GEELONGWX1
Bell Post Hill, GeelongAU

Bell Post HillGeelongAU

Lat: -38.101, Lon: 144.326

Elevation: 204

Station Type: Davis Vantage Pro2

http://www.geelongweather.com

Latest ConditionsUpdated 6:40:02 AM GMT+10:10 Thursday, Apr 25, 2019
Currently Today's Max Today's Min Today's Average
Temperature 49.0°F9.4°C 51.6°F10.9°C 46.9°F8.3°C 48.9°F9.4°C
Dew Point 46.2°F7.9°C 46.9°F8.3°C 43.5°F6.4°C 45.3°F7.4°C
Winds Calm Calm 3.5 mph -5.6 kmh - - 1.4 mph 2.3 kmh
Wind Gusts 1.2 mph1.9 kmh 5.8 mph9.3 kmh - -
Humidity 90% 90% 84% 88%
Pressure 30.25 in1024.4 mb 30.27 in1025.1 mb 30.24 in1024.0 mb -
Hour Temp Dew Point Humidity Winds Wind Gusts Pressure Precip Precip Rate Daily Precip Total
06:40 AM 49.0°F9.4°C 46.2°F7.9°C 90% Calm Calm 1.2 mph1.9 kmh 30.25 in1024.4 mb - 0.00 in0.0 mm 0.00 in0.0 mm
06:30 AM 48.7°F9.3°C 45.9°F7.7°C 90% Calm Calm 1.2 mph1.9 kmh 30.25 in1024.4 mb - 0.00 in0.0 mm 0.00 in0.0 mm
06:20 AM 48.4°F9.1°C 45.6°F7.6°C 90% Calm Calm 1.2 mph1.9 kmh 30.25 in1024.4 mb - 0.00 in0.0 mm 0.00 in0.0 mm
06:10 AM 48.3°F9.1°C 45.5°F7.5°C 90% Calm Calm -- 30.24 in1024.0 mb - 0.00 in0.0 mm 0.00 in0.0 mm
06:00 AM 48.2°F9.0°C 45.4°F7.4°C 90% Calm Calm -- 30.24 in1024.0 mb - 0.00 in0.0 mm 0.00 in0.0 mm
05:50 AM 48.0°F8.9°C 45.2°F7.3°C 90% Calm Calm 1.2 mph1.9 kmh 30.24 in1024.0 mb - 0.00 in0.0 mm 0.00 in0.0 mm
05:40 AM 47.6°F8.7°C 44.5°F6.9°C 89% 1.2 mph SW1.9 kmh SW 1.2 mph1.9 kmh 30.24 in1024.0 mb - 0.00 in0.0 mm 0.00 in0.0 mm
05:30 AM 47.3°F8.5°C 44.2°F6.8°C 89% Calm Calm 1.2 mph1.9 kmh 30.24 in1024.0 mb - 0.00 in0.0 mm 0.00 in0.0 mm
05:20 AM 47.1°F8.4°C 43.7°F6.5°C 88% Calm Calm -- 30.24 in1024.0 mb - 0.00 in0.0 mm 0.00 in0.0 mm
05:10 AM 46.9°F8.3°C 43.5°F6.4°C 88% Calm Calm -- 30.24 in1024.0 mb - 0.00 in0.0 mm 0.00 in0.0 mm
05:00 AM 46.9°F8.3°C 43.6°F6.4°C 88% Calm Calm 1.2 mph1.9 kmh 30.25 in1024.4 mb - 0.00 in0.0 mm 0.00 in0.0 mm
04:50 AM 47.1°F8.4°C 43.7°F6.5°C 88% Calm Calm -- 30.25 in1024.4 mb - 0.00 in0.0 mm 0.00 in0.0 mm
04:40 AM 47.3°F8.5°C 43.9°F6.6°C 88% Calm Calm 1.2 mph1.9 kmh 30.24 in1024.0 mb - 0.00 in0.0 mm 0.00 in0.0 mm
04:30 AM 47.5°F8.6°C 44.1°F6.7°C 88% 1.2 mph SW1.9 kmh SW 1.2 mph1.9 kmh 30.24 in1024.0 mb - 0.00 in0.0 mm 0.00 in0.0 mm
04:20 AM 47.8°F8.8°C 44.4°F6.9°C 88% 1.2 mph SW1.9 kmh SW 1.2 mph1.9 kmh 30.24 in1024.0 mb - 0.00 in0.0 mm 0.00 in0.0 mm
04:10 AM 48.0°F8.9°C 44.6°F7.0°C 88% Calm Calm 1.2 mph1.9 kmh 30.24 in1024.0 mb - 0.00 in0.0 mm 0.00 in0.0 mm
04:00 AM 48.1°F8.9°C 44.7°F7.1°C 88% 1.2 mph SW1.9 kmh SW 1.2 mph1.9 kmh 30.24 in1024.0 mb - 0.00 in0.0 mm 0.00 in0.0 mm
03:50 AM 48.3°F9.1°C 44.9°F7.2°C 88% 1.2 mph SW1.9 kmh SW 1.2 mph1.9 kmh 30.24 in1024.0 mb - 0.00 in0.0 mm 0.00 in0.0 mm
03:40 AM 48.5°F9.2°C 45.1°F7.3°C 88% 1.2 mph SW1.9 kmh SW 1.2 mph1.9 kmh 30.24 in1024.0 mb - 0.00 in0.0 mm 0.00 in0.0 mm
03:30 AM 48.5°F9.2°C 45.1°F7.3°C 88% 1.2 mph SW1.9 kmh SW 2.3 mph3.7 kmh 30.24 in1024.0 mb - 0.00 in0.0 mm 0.00 in0.0 mm
03:20 AM 48.7°F9.3°C 45.3°F7.4°C 88% 1.2 mph SW1.9 kmh SW 2.3 mph3.7 kmh 30.24 in1024.0 mb - 0.00 in0.0 mm 0.00 in0.0 mm
03:10 AM 48.7°F9.3°C 45.3°F7.4°C 88% 1.2 mph SW1.9 kmh SW 1.2 mph1.9 kmh 30.24 in1024.0 mb - 0.00 in0.0 mm 0.00 in0.0 mm
03:00 AM 48.9°F9.4°C 45.5°F7.5°C 88% 1.2 mph WSW1.9 kmh WSW 2.3 mph3.7 kmh 30.25 in1024.4 mb - 0.00 in0.0 mm 0.00 in0.0 mm
02:50 AM 49.0°F9.4°C 45.6°F7.6°C 88% 2.3 mph WSW3.7 kmh WSW 3.5 mph5.6 kmh 30.25 in1024.4 mb - 0.00 in0.0 mm 0.00 in0.0 mm
02:40 AM 49.1°F9.5°C 45.7°F7.6°C 88% 2.3 mph WSW3.7 kmh WSW 3.5 mph5.6 kmh 30.25 in1024.4 mb - 0.00 in0.0 mm 0.00 in0.0 mm
02:30 AM 49.1°F9.5°C 45.7°F7.6°C 88% 2.3 mph WSW3.7 kmh WSW 2.3 mph3.7 kmh 30.25 in1024.4 mb - 0.00 in0.0 mm 0.00 in0.0 mm
02:20 AM 49.1°F9.5°C 45.4°F7.4°C 87% 3.5 mph WSW5.6 kmh WSW 4.6 mph7.4 kmh 30.25 in1024.4 mb - 0.00 in0.0 mm 0.00 in0.0 mm
02:10 AM 49.1°F9.5°C 45.4°F7.4°C 87% 2.3 mph SW3.7 kmh SW 3.5 mph5.6 kmh 30.26 in1024.7 mb - 0.00 in0.0 mm 0.00 in0.0 mm
02:00 AM 49.2°F9.6°C 45.5°F7.5°C 87% 2.3 mph SW3.7 kmh SW 3.5 mph5.6 kmh 30.26 in1024.7 mb - 0.00 in0.0 mm 0.00 in0.0 mm
01:50 AM 49.4°F9.7°C 45.7°F7.6°C 87% 3.5 mph SW5.6 kmh SW 3.5 mph5.6 kmh 30.26 in1024.7 mb - 0.00 in0.0 mm 0.00 in0.0 mm
01:40 AM 49.7°F9.8°C 46.0°F7.8°C 87% 2.3 mph SW3.7 kmh SW 3.5 mph5.6 kmh 30.26 in1024.7 mb - 0.00 in0.0 mm 0.00 in0.0 mm
01:30 AM 49.8°F9.9°C 46.1°F7.8°C 87% 2.3 mph SW3.7 kmh SW 3.5 mph5.6 kmh 30.26 in1024.7 mb - 0.00 in0.0 mm 0.00 in0.0 mm
01:20 AM 49.9°F9.9°C 46.2°F7.9°C 87% 2.3 mph SW3.7 kmh SW 3.5 mph5.6 kmh 30.26 in1024.7 mb - 0.00 in0.0 mm 0.00 in0.0 mm
01:10 AM 50.1°F10.1°C 46.1°F7.8°C 86% 2.3 mph SSW3.7 kmh SSW 3.5 mph5.6 kmh 30.26 in1024.7 mb - 0.00 in0.0 mm 0.00 in0.0 mm
01:00 AM 50.3°F10.2°C 46.3°F7.9°C 86% 3.5 mph SSW5.6 kmh SSW 5.8 mph9.3 kmh 30.27 in1025.1 mb - 0.00 in0.0 mm 0.00 in0.0 mm
12:50 AM 50.5°F10.3°C 46.5°F8.1°C 86% 2.3 mph SW3.7 kmh SW 3.5 mph5.6 kmh 30.27 in1025.1 mb - 0.00 in0.0 mm 0.00 in0.0 mm
12:40 AM 50.7°F10.4°C 46.4°F8.0°C 85% 3.5 mph SSW5.6 kmh SSW 3.5 mph5.6 kmh 30.27 in1025.1 mb - 0.00 in0.0 mm 0.00 in0.0 mm
12:30 AM 50.8°F10.4°C 46.5°F8.1°C 85% 2.3 mph SSW3.7 kmh SSW 3.5 mph5.6 kmh 30.27 in1025.1 mb - 0.00 in0.0 mm 0.00 in0.0 mm
12:20 AM 51.1°F10.6°C 46.4°F8.0°C 84% 1.2 mph SW1.9 kmh SW 2.3 mph3.7 kmh 30.27 in1025.1 mb - 0.00 in0.0 mm 0.00 in0.0 mm
12:10 AM 51.4°F10.8°C 46.7°F8.2°C 84% 2.3 mph SSW3.7 kmh SSW 3.5 mph5.6 kmh 30.27 in1025.1 mb - 0.00 in0.0 mm 0.00 in0.0 mm
12:00 AM 51.6°F10.9°C 46.9°F8.3°C 84% 1.2 mph SSW1.9 kmh SSW 3.5 mph5.6 kmh 30.27 in1025.1 mb - 0.00 in0.0 mm 0.00 in0.0 mm